sensor_id;sensor_type;location;lat;lon;timestamp;pressure;altitude;pressure_sealevel;temperature;humidity
12360;BME280;6244;51.460;7.090;2023-02-22T00:03:52;100604.69;;;8.33;78.27
12360;BME280;6244;51.460;7.090;2023-02-22T00:08:50;100597.78;;;8.32;78.44
12360;BME280;6244;51.460;7.090;2023-02-22T00:13:47;100593.50;;;8.29;78.12
12360;BME280;6244;51.460;7.090;2023-02-22T00:18:45;100596.97;;;8.30;78.64
12360;BME280;6244;51.460;7.090;2023-02-22T00:23:43;100584.81;;;8.29;78.83
12360;BME280;6244;51.460;7.090;2023-02-22T00:28:42;100586.56;;;8.28;78.23
12360;BME280;6244;51.460;7.090;2023-02-22T00:33:38;100590.19;;;8.25;78.38
12360;BME280;6244;51.460;7.090;2023-02-22T00:38:35;100587.63;;;8.24;78.53
12360;BME280;6244;51.460;7.090;2023-02-22T00:43:32;100591.16;;;8.23;78.32
12360;BME280;6244;51.460;7.090;2023-02-22T00:48:30;100582.47;;;8.22;78.55
12360;BME280;6244;51.460;7.090;2023-02-22T00:53:27;100577.25;;;8.22;78.45
12360;BME280;6244;51.460;7.090;2023-02-22T00:58:23;100560.78;;;8.20;78.70
12360;BME280;6244;51.460;7.090;2023-02-22T01:03:21;100562.56;;;8.20;78.76
12360;BME280;6244;51.460;7.090;2023-02-22T01:08:18;100555.56;;;8.20;78.66
12360;BME280;6244;51.460;7.090;2023-02-22T01:13:15;100555.63;;;8.19;78.91
12360;BME280;6244;51.460;7.090;2023-02-22T01:18:14;100551.28;;;8.18;79.07
12360;BME280;6244;51.460;7.090;2023-02-22T01:23:11;100552.13;;;8.18;78.80
12360;BME280;6244;51.460;7.090;2023-02-22T01:28:09;100543.44;;;8.18;78.77
12360;BME280;6244;51.460;7.090;2023-02-22T01:33:08;100539.97;;;8.17;79.10
12360;BME280;6244;51.460;7.090;2023-02-22T01:38:07;100538.28;;;8.16;78.72
12360;BME280;6244;51.460;7.090;2023-02-22T01:43:15;100525.34;;;8.13;79.12
12360;BME280;6244;51.460;7.090;2023-02-22T01:48:17;100527.91;;;8.15;78.93
12360;BME280;6244;51.460;7.090;2023-02-22T01:53:17;100526.19;;;8.14;79.17
12360;BME280;6244;51.460;7.090;2023-02-22T01:58:17;100523.59;;;8.14;78.86
12360;BME280;6244;51.460;7.090;2023-02-22T02:03:20;100525.44;;;8.12;79.27
12360;BME280;6244;51.460;7.090;2023-02-22T02:08:32;100522.34;;;8.02;79.12
12360;BME280;6244;51.460;7.090;2023-02-22T02:13:32;100521.19;;;8.09;78.87
12360;BME280;6244;51.460;7.090;2023-02-22T02:18:29;100509.88;;;8.09;79.25
12360;BME280;6244;51.460;7.090;2023-02-22T02:23:43;100512.56;;;8.07;78.91
12360;BME280;6244;51.460;7.090;2023-02-22T02:29:16;100496.09;;;8.05;79.09
12360;BME280;6244;51.460;7.090;2023-02-22T02:34:25;100491.69;;;8.06;79.15
12360;BME280;6244;51.460;7.090;2023-02-22T02:39:26;100485.59;;;8.07;79.01
12360;BME280;6244;51.460;7.090;2023-02-22T02:44:27;100478.78;;;8.03;79.16
12360;BME280;6244;51.460;7.090;2023-02-22T02:49:29;100486.47;;;8.06;78.88
12360;BME280;6244;51.460;7.090;2023-02-22T02:54:29;100480.41;;;8.05;79.06
12360;BME280;6244;51.460;7.090;2023-02-22T02:59:29;100469.16;;;8.03;79.17
12360;BME280;6244;51.460;7.090;2023-02-22T03:04:36;100466.63;;;8.02;78.80
12360;BME280;6244;51.460;7.090;2023-02-22T03:09:41;100462.25;;;8.02;78.72
12360;BME280;6244;51.460;7.090;2023-02-22T03:14:50;100451.94;;;7.99;79.02
12360;BME280;6244;51.460;7.090;2023-02-22T03:19:57;100446.72;;;7.99;78.82
12360;BME280;6244;51.460;7.090;2023-02-22T03:24:57;100437.19;;;7.98;79.09
12360;BME280;6244;51.460;7.090;2023-02-22T03:30:05;100438.03;;;7.99;78.78
12360;BME280;6244;51.460;7.090;2023-02-22T03:35:07;100428.56;;;7.96;78.84
12360;BME280;6244;51.460;7.090;2023-02-22T03:40:07;100429.50;;;7.95;79.08
12360;BME280;6244;51.460;7.090;2023-02-22T03:45:10;100426.88;;;7.95;78.97
12360;BME280;6244;51.460;7.090;2023-02-22T03:50:14;100423.44;;;7.93;78.46
12360;BME280;6244;51.460;7.090;2023-02-22T03:55:12;100420.84;;;7.93;78.43
12360;BME280;6244;51.460;7.090;2023-02-22T04:00:15;100413.91;;;7.92;78.60
12360;BME280;6244;51.460;7.090;2023-02-22T04:05:14;100415.69;;;7.91;78.46
12360;BME280;6244;51.460;7.090;2023-02-22T04:10:12;100421.97;;;7.87;78.37
12360;BME280;6244;51.460;7.090;2023-02-22T04:15:12;100422.88;;;7.86;78.69
12360;BME280;6244;51.460;7.090;2023-02-22T04:20:09;100425.56;;;7.85;78.52
12360;BME280;6244;51.460;7.090;2023-02-22T04:25:09;100423.88;;;7.84;78.65
12360;BME280;6244;51.460;7.090;2023-02-22T04:30:06;100431.72;;;7.84;78.95
12360;BME280;6244;51.460;7.090;2023-02-22T04:35:03;100432.63;;;7.83;78.86
12360;BME280;6244;51.460;7.090;2023-02-22T04:40:00;100428.31;;;7.82;79.04
12360;BME280;6244;51.460;7.090;2023-02-22T04:44:57;100431.81;;;7.81;78.86
12360;BME280;6244;51.460;7.090;2023-02-22T04:49:54;100416.22;;;7.79;78.92
12360;BME280;6244;51.460;7.090;2023-02-22T04:54:51;100421.44;;;7.79;78.83
12360;BME280;6244;51.460;7.090;2023-02-22T04:59:47;100413.69;;;7.78;78.33
12360;BME280;6244;51.460;7.090;2023-02-22T05:04:46;100413.75;;;7.76;78.65
12360;BME280;6244;51.460;7.090;2023-02-22T05:09:43;100401.69;;;7.74;78.83
12360;BME280;6244;51.460;7.090;2023-02-22T05:14:40;100393.00;;;7.73;78.98
12360;BME280;6244;51.460;7.090;2023-02-22T05:19:37;100392.22;;;7.71;78.71
12360;BME280;6244;51.460;7.090;2023-02-22T05:24:35;100385.31;;;7.70;78.67
12360;BME280;6244;51.460;7.090;2023-02-22T05:29:31;100381.00;;;7.69;78.81
12360;BME280;6244;51.460;7.090;2023-02-22T05:34:28;100381.00;;;7.69;78.38
12360;BME280;6244;51.460;7.090;2023-02-22T05:39:25;100377.56;;;7.67;78.42
12360;BME280;6244;51.460;7.090;2023-02-22T05:44:23;100377.56;;;7.67;78.46
12360;BME280;6244;51.460;7.090;2023-02-22T05:49:19;100369.03;;;7.63;78.46
12360;BME280;6244;51.460;7.090;2023-02-22T05:54:16;100356.97;;;7.61;78.54
12360;BME280;6244;51.460;7.090;2023-02-22T05:59:12;100362.13;;;7.62;78.46
12360;BME280;6244;51.460;7.090;2023-02-22T06:04:11;100360.44;;;7.61;78.37
12360;BME280;6244;51.460;7.090;2023-02-22T06:09:07;100362.25;;;7.59;78.70
12360;BME280;6244;51.460;7.090;2023-02-22T06:14:04;100364.03;;;7.59;78.24
12360;BME280;6244;51.460;7.090;2023-02-22T06:19:00;100364.09;;;7.57;78.37
12360;BME280;6244;51.460;7.090;2023-02-22T06:24:00;100366.75;;;7.56;78.25
12360;BME280;6244;51.460;7.090;2023-02-22T06:28:58;100367.72;;;7.53;78.25
12360;BME280;6244;51.460;7.090;2023-02-22T06:33:54;100369.50;;;7.53;78.35
12360;BME280;6244;51.460;7.090;2023-02-22T06:38:51;100358.34;;;7.49;78.43
12360;BME280;6244;51.460;7.090;2023-02-22T06:43:49;100367.94;;;7.49;77.99
12360;BME280;6244;51.460;7.090;2023-02-22T06:48:45;100361.94;;;7.47;78.11
12360;BME280;6244;51.460;7.090;2023-02-22T06:53:42;100366.38;;;7.45;77.67
12360;BME280;6244;51.460;7.090;2023-02-22T06:58:39;100358.94;;;7.35;76.09
12360;BME280;6244;51.460;7.090;2023-02-22T07:03:37;100363.41;;;7.12;74.55
12360;BME280;6244;51.460;7.090;2023-02-22T07:08:34;100367.19;;;7.04;74.81
12360;BME280;6244;51.460;7.090;2023-02-22T07:13:30;100354.91;;;7.06;75.66
12360;BME280;6244;51.460;7.090;2023-02-22T07:18:27;100357.50;;;7.08;75.69
12360;BME280;6244;51.460;7.090;2023-02-22T07:23:25;100351.28;;;7.11;75.63
12360;BME280;6244;51.460;7.090;2023-02-22T07:28:22;100356.44;;;7.12;76.20
12360;BME280;6244;51.460;7.090;2023-02-22T07:33:18;100352.00;;;7.14;76.00
12360;BME280;6244;51.460;7.090;2023-02-22T07:38:16;100354.69;;;7.13;76.14
12360;BME280;6244;51.460;7.090;2023-02-22T07:43:16;100357.22;;;7.14;76.21
12360;BME280;6244;51.460;7.090;2023-02-22T07:48:14;100356.31;;;7.15;76.15
12360;BME280;6244;51.460;7.090;2023-02-22T07:53:14;100352.00;;;7.14;76.21
12360;BME280;6244;51.460;7.090;2023-02-22T07:58:15;100337.19;;;7.15;75.90
12360;BME280;6244;51.460;7.090;2023-02-22T08:03:13;100328.59;;;7.13;76.02
12360;BME280;6244;51.460;7.090;2023-02-22T08:08:11;100332.03;;;7.13;76.41
12360;BME280;6244;51.460;7.090;2023-02-22T08:13:09;100331.97;;;7.15;76.19
12360;BME280;6244;51.460;7.090;2023-02-22T08:18:09;100327.69;;;7.14;76.27
12360;BME280;6244;51.460;7.090;2023-02-22T08:23:06;100322.44;;;7.14;76.61
12360;BME280;6244;51.460;7.090;2023-02-22T08:28:05;100330.22;;;7.15;76.30
12360;BME280;6244;51.460;7.090;2023-02-22T08:33:03;100324.16;;;7.15;76.49
12360;BME280;6244;51.460;7.090;2023-02-22T08:38:04;100314.56;;;7.15;76.41
12360;BME280;6244;51.460;7.090;2023-02-22T08:43:01;100314.63;;;7.14;76.34
12360;BME280;6244;51.460;7.090;2023-02-22T08:47:58;100318.88;;;7.16;76.84
12360;BME280;6244;51.460;7.090;2023-02-22T08:52:57;100310.13;;;7.17;77.12
12360;BME280;6244;51.460;7.090;2023-02-22T08:57:55;100308.28;;;7.19;76.84
12360;BME280;6244;51.460;7.090;2023-02-22T09:02:51;100298.66;;;7.21;77.27
12360;BME280;6244;51.460;7.090;2023-02-22T09:07:48;100296.81;;;7.23;77.36
12360;BME280;6244;51.460;7.090;2023-02-22T09:12:44;100298.38;;;7.27;77.41
12360;BME280;6244;51.460;7.090;2023-02-22T09:17:43;100299.94;;;7.31;77.26
12360;BME280;6244;51.460;7.090;2023-02-22T09:22:40;100290.22;;;7.35;77.53
12360;BME280;6244;51.460;7.090;2023-02-22T09:27:39;100293.47;;;7.40;77.13
12360;BME280;6244;51.460;7.090;2023-02-22T09:32:37;100291.53;;;7.45;77.38
12360;BME280;6244;51.460;7.090;2023-02-22T09:37:35;100280.81;;;7.51;76.94
12360;BME280;6244;51.460;7.090;2023-02-22T09:42:34;100286.59;;;7.58;76.96
12360;BME280;6244;51.460;7.090;2023-02-22T09:47:39;100278.63;;;7.61;77.17
12360;BME280;6244;51.460;7.090;2023-02-22T09:52:50;100271.34;;;7.68;76.99
12360;BME280;6244;51.460;7.090;2023-02-22T09:57:49;100274.41;;;7.77;77.43
12360;BME280;6244;51.460;7.090;2023-02-22T10:02:57;100277.66;;;7.82;77.33
12360;BME280;6244;51.460;7.090;2023-02-22T10:08:03;100285.06;;;7.91;77.05
12360;BME280;6244;51.460;7.090;2023-02-22T10:13:06;100275.19;;;7.98;77.00
12360;BME280;6244;51.460;7.090;2023-02-22T10:18:31;100279.19;;;8.05;77.04
12360;BME280;6244;51.460;7.090;2023-02-22T10:23:38;100267.41;;;8.15;76.74
12360;BME280;6244;51.460;7.090;2023-02-22T10:28:40;100268.75;;;8.24;76.73
12360;BME280;6244;51.460;7.090;2023-02-22T10:33:45;100266.63;;;8.32;76.82
12360;BME280;6244;51.460;7.090;2023-02-22T10:38:49;100269.66;;;8.42;76.83
12360;BME280;6244;51.460;7.090;2023-02-22T10:43:48;100262.13;;;8.53;76.56
12360;BME280;6244;51.460;7.090;2023-02-22T10:48:47;100266.00;;;8.63;76.54
12360;BME280;6244;51.460;7.090;2023-02-22T10:53:54;100250.78;;;8.71;76.26
12360;BME280;6244;51.460;7.090;2023-02-22T10:58:55;100242.22;;;8.85;76.33
12360;BME280;6244;51.460;7.090;2023-02-22T11:04:04;100222.63;;;8.94;76.24
12360;BME280;6244;51.460;7.090;2023-02-22T11:09:09;100222.50;;;9.12;75.76
12360;BME280;6244;51.460;7.090;2023-02-22T11:14:08;100224.22;;;9.29;74.95
12360;BME280;6244;51.460;7.090;2023-02-22T11:19:11;100218.13;;;9.46;74.55
12360;BME280;6244;51.460;7.090;2023-02-22T11:24:14;100209.25;;;9.64;73.36
12360;BME280;6244;51.460;7.090;2023-02-22T11:29:18;100206.72;;;9.79;72.60
12360;BME280;6244;51.460;7.090;2023-02-22T11:34:31;100201.50;;;9.94;71.97
12360;BME280;6244;51.460;7.090;2023-02-22T11:39:30;100198.50;;;10.16;71.37
12360;BME280;6244;51.460;7.090;2023-02-22T11:44:30;100179.97;;;10.35;70.50
12360;BME280;6244;51.460;7.090;2023-02-22T11:49:32;100176.38;;;10.52;69.09
12360;BME280;6244;51.460;7.090;2023-02-22T12:00:11;100172.78;;;10.83;68.37
12360;BME280;6244;51.460;7.090;2023-02-22T12:05:19;100165.97;;;10.95;67.65
12360;BME280;6244;51.460;7.090;2023-02-22T12:10:27;100165.13;;;11.08;67.29
12360;BME280;6244;51.460;7.090;2023-02-22T12:15:38;100157.53;;;11.18;66.76
12360;BME280;6244;51.460;7.090;2023-02-22T12:20:39;100152.38;;;11.31;66.32
12360;BME280;6244;51.460;7.090;2023-02-22T12:25:51;100153.38;;;11.42;65.61
12360;BME280;6244;51.460;7.090;2023-02-22T12:31:03;100137.59;;;11.57;64.52
12360;BME280;6244;51.460;7.090;2023-02-22T12:36:03;100139.13;;;11.73;63.66
12360;BME280;6244;51.460;7.090;2023-02-22T12:41:03;100133.75;;;11.89;62.87
12360;BME280;6244;51.460;7.090;2023-02-22T12:46:09;100135.31;;;12.06;61.97
12360;BME280;6244;51.460;7.090;2023-02-22T12:51:18;100137.97;;;12.19;61.50
12360;BME280;6244;51.460;7.090;2023-02-22T12:56:20;100132.75;;;12.31;60.35
12360;BME280;6244;51.460;7.090;2023-02-22T13:01:23;100140.56;;;12.46;59.93
12360;BME280;6244;51.460;7.090;2023-02-22T13:06:37;100151.44;;;12.54;59.70
12360;BME280;6244;51.460;7.090;2023-02-22T13:11:41;100145.34;;;12.66;58.86
12360;BME280;6244;51.460;7.090;2023-02-22T13:16:46;100152.59;;;12.75;58.40
12360;BME280;6244;51.460;7.090;2023-02-22T13:21:52;100149.34;;;12.84;58.14
12360;BME280;6244;51.460;7.090;2023-02-22T13:26:52;100139.53;;;12.86;58.43
12360;BME280;6244;51.460;7.090;2023-02-22T13:32:07;100128.06;;;12.87;58.63
12360;BME280;6244;51.460;7.090;2023-02-22T13:37:22;100138.28;;;12.92;58.57
12360;BME280;6244;51.460;7.090;2023-02-22T13:48:32;100140.38;;;13.00;57.96
12360;BME280;6244;51.460;7.090;2023-02-22T13:53:35;100136.50;;;12.92;56.62
12360;BME280;6244;51.460;7.090;2023-02-22T13:58:49;100140.06;;;13.04;56.71
12360;BME280;6244;51.460;7.090;2023-02-22T14:03:48;100137.84;;;13.11;55.99
12360;BME280;6244;51.460;7.090;2023-02-22T14:08:45;100134.38;;;13.10;56.23
12360;BME280;6244;51.460;7.090;2023-02-22T14:14:08;100125.13;;;13.05;56.50
12360;BME280;6244;51.460;7.090;2023-02-22T14:19:13;100130.50;;;13.03;56.80
12360;BME280;6244;51.460;7.090;2023-02-22T14:24:13;100135.66;;;13.05;56.20
12360;BME280;6244;51.460;7.090;2023-02-22T14:29:15;100133.13;;;13.03;56.41
12360;BME280;6244;51.460;7.090;2023-02-22T14:34:15;100133.19;;;13.02;56.43
12360;BME280;6244;51.460;7.090;2023-02-22T14:39:19;100128.88;;;13.01;56.23
12360;BME280;6244;51.460;7.090;2023-02-22T14:44:22;100129.66;;;13.03;56.26
12360;BME280;6244;51.460;7.090;2023-02-22T14:49:24;100134.16;;;13.01;56.25
12360;BME280;6244;51.460;7.090;2023-02-22T14:54:26;100131.53;;;13.01;56.79
12360;BME280;6244;51.460;7.090;2023-02-22T14:59:25;100123.72;;;12.99;56.55
12360;BME280;6244;51.460;7.090;2023-02-22T15:04:26;100136.16;;;12.97;56.49
12360;BME280;6244;51.460;7.090;2023-02-22T15:09:27;100128.25;;;12.97;56.01
12360;BME280;6244;51.460;7.090;2023-02-22T15:14:24;100134.59;;;12.94;55.97
12360;BME280;6244;51.460;7.090;2023-02-22T15:19:25;100134.72;;;12.93;56.21
12360;BME280;6244;51.460;7.090;2023-02-22T15:24:25;100130.69;;;12.87;56.88
12360;BME280;6244;51.460;7.090;2023-02-22T15:29:24;100142.38;;;12.83;57.40
12360;BME280;6244;51.460;7.090;2023-02-22T15:34:26;100140.16;;;12.77;57.82
12360;BME280;6244;51.460;7.090;2023-02-22T15:39:26;100138.69;;;12.73;58.28
12360;BME280;6244;51.460;7.090;2023-02-22T15:44:24;100144.38;;;12.67;58.84
12360;BME280;6244;51.460;7.090;2023-02-22T15:49:22;100138.19;;;12.68;59.01
12360;BME280;6244;51.460;7.090;2023-02-22T15:54:20;100139.13;;;12.92;58.69
12360;BME280;6244;51.460;7.090;2023-02-22T15:59:18;100146.47;;;13.13;58.79
12360;BME280;6244;51.460;7.090;2023-02-22T16:04:18;100147.03;;;13.31;58.58
12360;BME280;6244;51.460;7.090;2023-02-22T16:09:18;100153.22;;;13.42;58.62
12360;BME280;6244;51.460;7.090;2023-02-22T16:14:26;100151.81;;;13.49;58.49
12360;BME280;6244;51.460;7.090;2023-02-22T16:19:27;100146.84;;;13.58;58.63
12360;BME280;6244;51.460;7.090;2023-02-22T16:24:28;100149.25;;;13.61;58.54
12360;BME280;6244;51.460;7.090;2023-02-22T16:29:27;100158.97;;;13.60;58.62
12360;BME280;6244;51.460;7.090;2023-02-22T16:34:23;100163.41;;;13.60;58.88
12360;BME280;6244;51.460;7.090;2023-02-22T16:39:23;100158.25;;;13.58;58.95
12360;BME280;6244;51.460;7.090;2023-02-22T16:44:21;100168.16;;;13.55;59.16
12360;BME280;6244;51.460;7.090;2023-02-22T16:49:20;100154.25;;;13.52;59.37
12360;BME280;6244;51.460;7.090;2023-02-22T16:54:22;100165.72;;;13.51;59.35
12360;BME280;6244;51.460;7.090;2023-02-22T16:59:19;100164.16;;;13.49;59.76
12360;BME280;6244;51.460;7.090;2023-02-22T17:04:18;100165.22;;;13.46;59.75
12360;BME280;6244;51.460;7.090;2023-02-22T17:09:16;100163.78;;;13.42;60.08
12360;BME280;6244;51.460;7.090;2023-02-22T17:14:16;100173.59;;;13.40;60.29
12360;BME280;6244;51.460;7.090;2023-02-22T17:19:15;100180.84;;;13.37;60.35
12360;BME280;6244;51.460;7.090;2023-02-22T17:24:13;100187.69;;;13.27;59.99
12360;BME280;6244;51.460;7.090;2023-02-22T17:29:11;100181.88;;;13.09;60.47
12360;BME280;6244;51.460;7.090;2023-02-22T17:34:09;100191.97;;;12.89;61.23
12360;BME280;6244;51.460;7.090;2023-02-22T17:39:06;100189.66;;;12.72;61.86
12360;BME280;6244;51.460;7.090;2023-02-22T17:44:04;100193.13;;;12.60;62.47
12360;BME280;6244;51.460;7.090;2023-02-22T17:49:02;100204.81;;;12.69;62.82
12360;BME280;6244;51.460;7.090;2023-02-22T17:53:59;100198.53;;;12.84;62.71
12360;BME280;6244;51.460;7.090;2023-02-22T17:58:55;100197.47;;;12.99;62.38
12360;BME280;6244;51.460;7.090;2023-02-22T18:03:52;100206.53;;;13.08;62.22
12360;BME280;6244;51.460;7.090;2023-02-22T18:08:51;100209.22;;;13.20;62.05
12360;BME280;6244;51.460;7.090;2023-02-22T18:13:48;100210.56;;;13.26;61.82
12360;BME280;6244;51.460;7.090;2023-02-22T18:18:44;100215.53;;;13.31;61.79
12360;BME280;6244;51.460;7.090;2023-02-22T18:23:42;100219.75;;;13.33;61.86
12360;BME280;6244;51.460;7.090;2023-02-22T18:28:41;100221.44;;;13.34;61.70
12360;BME280;6244;51.460;7.090;2023-02-22T18:33:37;100227.53;;;13.35;61.73
12360;BME280;6244;51.460;7.090;2023-02-22T18:38:34;100218.06;;;13.32;61.57
12360;BME280;6244;51.460;7.090;2023-02-22T18:43:31;100213.84;;;13.30;61.60
12360;BME280;6244;51.460;7.090;2023-02-22T18:48:29;100213.97;;;13.28;61.58
12360;BME280;6244;51.460;7.090;2023-02-22T18:53:27;100215.84;;;13.26;61.72
12360;BME280;6244;51.460;7.090;2023-02-22T18:58:24;100215.22;;;13.22;61.86
12360;BME280;6244;51.460;7.090;2023-02-22T19:03:20;100221.44;;;13.21;61.91
12360;BME280;6244;51.460;7.090;2023-02-22T19:08:18;100219.94;;;13.17;62.21
12360;BME280;6244;51.460;7.090;2023-02-22T19:13:15;100221.91;;;13.14;62.28
12360;BME280;6244;51.460;7.090;2023-02-22T19:18:13;100229.09;;;13.12;62.50
12360;BME280;6244;51.460;7.090;2023-02-22T19:23:09;100228.56;;;13.07;62.31
12360;BME280;6244;51.460;7.090;2023-02-22T19:28:07;100232.38;;;13.03;62.63
12360;BME280;6244;51.460;7.090;2023-02-22T19:33:04;100243.81;;;13.02;62.97
12360;BME280;6244;51.460;7.090;2023-02-22T19:38:01;100251.84;;;13.00;63.04
12360;BME280;6244;51.460;7.090;2023-02-22T19:42:57;100260.06;;;12.96;63.00
12360;BME280;6244;51.460;7.090;2023-02-22T19:47:55;100257.75;;;12.91;63.16
12360;BME280;6244;51.460;7.090;2023-02-22T19:52:52;100262.34;;;12.87;63.41
12360;BME280;6244;51.460;7.090;2023-02-22T19:57:50;100258.25;;;12.83;63.64
12360;BME280;6244;51.460;7.090;2023-02-22T20:02:46;100263.63;;;12.82;63.78
12360;BME280;6244;51.460;7.090;2023-02-22T20:07:45;100266.53;;;12.77;63.77
12360;BME280;6244;51.460;7.090;2023-02-22T20:12:42;100259.91;;;12.72;64.06
12360;BME280;6244;51.460;7.090;2023-02-22T20:17:39;100259.16;;;12.70;64.21
12360;BME280;6244;51.460;7.090;2023-02-22T20:22:35;100268.22;;;12.66;64.46
12360;BME280;6244;51.460;7.090;2023-02-22T20:27:33;100273.56;;;12.64;64.60
12360;BME280;6244;51.460;7.090;2023-02-22T20:32:30;100275.56;;;12.60;64.87
12360;BME280;6244;51.460;7.090;2023-02-22T20:37:26;100269.66;;;12.57;64.82
12360;BME280;6244;51.460;7.090;2023-02-22T20:42:23;100269.03;;;12.53;65.18
12360;BME280;6244;51.460;7.090;2023-02-22T20:47:21;100275.31;;;12.51;65.19
12360;BME280;6244;51.460;7.090;2023-02-22T20:52:17;100272.13;;;12.46;65.32
12360;BME280;6244;51.460;7.090;2023-02-22T20:57:14;100282.88;;;12.43;65.37
12360;BME280;6244;51.460;7.090;2023-02-22T21:02:10;100282.13;;;12.41;65.55
12360;BME280;6244;51.460;7.090;2023-02-22T21:07:08;100274.41;;;12.38;65.81
12360;BME280;6244;51.460;7.090;2023-02-22T21:12:05;100275.47;;;12.35;65.90
12360;BME280;6244;51.460;7.090;2023-02-22T21:17:07;100282.72;;;12.31;65.92
12360;BME280;6244;51.460;7.090;2023-02-22T21:22:04;100281.97;;;12.29;66.06
12360;BME280;6244;51.460;7.090;2023-02-22T21:27:03;100283.19;;;12.24;66.23
12360;BME280;6244;51.460;7.090;2023-02-22T21:32:01;100283.41;;;12.21;66.40
12360;BME280;6244;51.460;7.090;2023-02-22T21:36:57;100280.03;;;12.19;66.43
12360;BME280;6244;51.460;7.090;2023-02-22T21:41:55;100270.63;;;12.15;66.56
12360;BME280;6244;51.460;7.090;2023-02-22T21:46:55;100274.19;;;12.14;66.71
12360;BME280;6244;51.460;7.090;2023-02-22T21:51:52;100273.44;;;12.12;66.93
12360;BME280;6244;51.460;7.090;2023-02-22T21:56:49;100276.28;;;12.09;67.06
12360;BME280;6244;51.460;7.090;2023-02-22T22:01:47;100275.53;;;12.07;67.08
12360;BME280;6244;51.460;7.090;2023-02-22T22:06:47;100274.91;;;12.03;67.20
12360;BME280;6244;51.460;7.090;2023-02-22T22:11:46;100274.13;;;12.01;67.33
12360;BME280;6244;51.460;7.090;2023-02-22T22:16:45;100276.00;;;11.99;67.56
12360;BME280;6244;51.460;7.090;2023-02-22T22:21:42;100274.53;;;11.95;67.57
12360;BME280;6244;51.460;7.090;2023-02-22T22:26:42;100279.88;;;11.93;67.92
12360;BME280;6244;51.460;7.090;2023-02-22T22:31:39;100270.31;;;11.92;68.14
12360;BME280;6244;51.460;7.090;2023-02-22T22:36:35;100273.94;;;11.90;68.10
12360;BME280;6244;51.460;7.090;2023-02-22T22:41:32;100270.56;;;11.88;68.26
12360;BME280;6244;51.460;7.090;2023-02-22T22:46:30;100278.56;;;11.86;68.38
12360;BME280;6244;51.460;7.090;2023-02-22T22:51:27;100277.81;;;11.84;68.54
12360;BME280;6244;51.460;7.090;2023-02-22T22:56:25;100284.97;;;11.82;68.65
12360;BME280;6244;51.460;7.090;2023-02-22T23:01:25;100275.53;;;11.78;68.82
12360;BME280;6244;51.460;7.090;2023-02-22T23:06:25;100282.56;;;11.77;68.92
12360;BME280;6244;51.460;7.090;2023-02-22T23:11:22;100278.25;;;11.76;68.98
12360;BME280;6244;51.460;7.090;2023-02-22T23:16:19;100277.50;;;11.74;69.08
12360;BME280;6244;51.460;7.090;2023-02-22T23:21:15;100279.38;;;11.72;69.28
12360;BME280;6244;51.460;7.090;2023-02-22T23:26:13;100285.59;;;11.71;69.36
12360;BME280;6244;51.460;7.090;2023-02-22T23:31:15;100283.16;;;11.68;69.40
12360;BME280;6244;51.460;7.090;2023-02-22T23:36:12;100283.25;;;11.67;69.55
12360;BME280;6244;51.460;7.090;2023-02-22T23:41:11;100289.53;;;11.64;69.69
12360;BME280;6244;51.460;7.090;2023-02-22T23:46:14;100296.56;;;11.64;69.61
12360;BME280;6244;51.460;7.090;2023-02-22T23:51:13;100301.91;;;11.62;69.87
12360;BME280;6244;51.460;7.090;2023-02-22T23:56:11;100294.97;;;11.61;69.98
